createdAt,value
2024-03-26T00:00:49.469Z,68.3346
2024-03-26T00:01:52.273Z,68.6986
2024-03-26T00:02:55.032Z,68.8016
2024-03-26T00:03:57.708Z,69.0887
2024-03-26T00:05:00.398Z,69.0068
2024-03-26T00:06:03.123Z,68.4705
2024-03-26T00:07:05.869Z,68.7834
2024-03-26T00:08:08.534Z,67.6812
2024-03-26T00:09:11.257Z,68.4816
2024-03-26T00:10:14.013Z,68.0545
2024-03-26T00:11:16.736Z,68.1980
2024-03-26T00:12:19.524Z,68.5024
2024-03-26T00:13:22.184Z,69.2387
2024-03-26T00:14:24.953Z,68.4416
2024-03-26T00:15:27.618Z,68.7375
2024-03-26T00:16:30.335Z,68.6073
2024-03-26T00:17:33.017Z,69.0667
2024-03-26T00:18:35.763Z,69.0085
2024-03-26T00:19:38.506Z,68.6473
2024-03-26T00:20:41.184Z,68.7652
2024-03-26T00:21:43.962Z,69.1200
2024-03-26T00:22:46.659Z,69.5889
2024-03-26T00:23:49.346Z,69.8572
2024-03-26T00:24:52.026Z,69.8824
2024-03-26T00:25:54.747Z,68.5590
2024-03-26T00:26:57.562Z,68.5524
2024-03-26T00:28:00.280Z,68.8779
2024-03-26T00:29:02.942Z,69.0021
2024-03-26T00:30:05.702Z,68.8587
2024-03-26T00:31:08.435Z,69.3964
2024-03-26T00:32:11.477Z,69.9235
2024-03-26T00:33:14.223Z,69.5711
2024-03-26T00:34:16.889Z,69.1083
2024-03-26T00:35:19.627Z,69.5843
2024-03-26T00:36:22.457Z,69.6304
2024-03-26T00:37:25.150Z,69.7619
2024-03-26T00:38:27.893Z,69.7583
2024-03-26T00:39:30.629Z,70.0253
2024-03-26T00:40:33.312Z,69.4579
2024-03-26T00:41:36.004Z,69.3317
2024-03-26T00:42:38.651Z,69.6171
2024-03-26T00:43:41.388Z,69.5805
2024-03-26T00:44:44.097Z,69.1928
2024-03-26T00:45:46.820Z,69.3658
2024-03-26T00:46:49.503Z,69.8165
2024-03-26T00:47:52.264Z,70.0426
2024-03-26T00:48:54.941Z,69.9245
2024-03-26T00:49:57.698Z,70.0105
2024-03-26T00:51:00.417Z,70.1402
2024-03-26T00:52:03.177Z,70.2777
2024-03-26T00:53:05.867Z,70.8657
2024-03-26T00:54:08.576Z,71.4210
2024-03-26T00:55:11.242Z,72.1231
2024-03-26T00:56:14.017Z,71.4537
2024-03-26T00:57:16.720Z,71.0887
2024-03-26T00:58:19.458Z,71.4848
2024-03-26T00:59:22.161Z,70.8953
2024-03-26T01:00:24.840Z,69.5347
2024-03-26T01:01:27.531Z,69.6897
2024-03-26T01:02:30.385Z,70.2926
2024-03-26T01:03:33.051Z,71.2902
2024-03-26T01:04:35.776Z,71.6422
2024-03-26T01:05:38.445Z,71.5184
2024-03-26T01:06:41.217Z,71.7127
2024-03-26T01:07:43.906Z,71.9276
2024-03-26T01:08:46.589Z,72.1436
2024-03-26T01:09:49.304Z,71.9392
2024-03-26T01:10:52.176Z,71.0065
2024-03-26T01:11:54.871Z,71.8017
2024-03-26T01:12:57.590Z,72.5405
2024-03-26T01:14:00.252Z,72.5467
2024-03-26T01:15:03.014Z,72.4796
2024-03-26T01:16:05.702Z,72.8057
2024-03-26T01:17:08.445Z,72.6127
2024-03-26T01:18:11.078Z,72.0872
2024-03-26T01:19:13.916Z,72.8753
2024-03-26T01:20:16.891Z,73.1483
2024-03-26T01:21:22.866Z,72.8077
2024-03-26T01:22:22.784Z,71.8063
2024-03-26T01:23:25.440Z,72.1066
2024-03-26T01:24:28.185Z,72.8879
2024-03-26T01:25:31.077Z,72.5973
2024-03-26T01:26:33.858Z,71.6191
2024-03-26T01:27:36.586Z,71.6465
2024-03-26T01:28:39.300Z,70.7364
2024-03-26T01:29:41.969Z,71.2418
2024-03-26T01:30:44.721Z,70.9388
2024-03-26T01:31:47.466Z,71.0617
2024-03-26T01:32:50.217Z,70.4897
2024-03-26T01:33:52.905Z,72.2105
2024-03-26T01:34:55.918Z,71.8481
2024-03-26T01:35:58.670Z,71.2350
2024-03-26T01:37:01.383Z,70.8029
2024-03-26T01:38:04.019Z,71.7072
2024-03-26T01:39:06.794Z,71.8324
2024-03-26T01:40:09.544Z,71.9214
2024-03-26T01:41:12.246Z,72.2724
2024-03-26T01:42:14.984Z,72.3211
2024-03-26T01:43:17.668Z,71.8453
2024-03-26T01:44:20.430Z,72.0806
2024-03-26T01:45:23.137Z,72.5414
2024-03-26T01:46:25.857Z,72.9420
2024-03-26T01:47:28.535Z,71.7725
2024-03-26T01:48:31.309Z,71.9415
2024-03-26T01:49:34.017Z,71.8496
2024-03-26T01:50:36.789Z,72.0626
2024-03-26T01:51:39.522Z,72.3635
2024-03-26T01:52:42.197Z,72.8895
2024-03-26T01:53:44.963Z,72.8456
2024-03-26T01:54:47.698Z,72.5109
2024-03-26T01:55:50.365Z,72.6828
2024-03-26T01:56:53.063Z,73.1791
2024-03-26T01:57:55.732Z,73.3210
2024-03-26T01:58:58.429Z,73.2600
2024-03-26T02:00:01.145Z,73.3288
2024-03-26T02:01:03.941Z,73.8055
2024-03-26T02:02:06.651Z,74.0220
2024-03-26T02:03:09.318Z,74.1237
2024-03-26T02:04:12.102Z,74.1810
2024-03-26T02:05:14.822Z,72.9163
2024-03-26T02:06:17.533Z,72.7260
2024-03-26T02:07:20.219Z,73.5586
2024-03-26T02:08:22.988Z,74.6874
2024-03-26T02:09:25.699Z,74.5327
2024-03-26T02:10:28.410Z,73.9523
2024-03-26T02:11:31.143Z,74.6791
2024-03-26T02:12:33.873Z,75.5696
2024-03-26T02:13:36.607Z,74.5635
2024-03-26T02:14:39.346Z,74.8342
2024-03-26T02:15:42.078Z,74.1009
2024-03-26T02:16:44.802Z,74.2348
2024-03-26T02:17:47.566Z,74.0876
2024-03-26T02:18:50.224Z,73.4936
2024-03-26T02:19:52.960Z,73.1931
2024-03-26T02:20:55.732Z,72.3384
2024-03-26T02:21:58.478Z,72.5742
2024-03-26T02:23:01.188Z,72.7557
2024-03-26T02:24:04.134Z,73.4531
2024-03-26T02:25:06.820Z,73.0031
2024-03-26T02:26:09.558Z,72.7514
2024-03-26T02:27:12.255Z,72.4771
2024-03-26T02:28:14.970Z,72.8973
2024-03-26T02:29:17.742Z,72.8893
2024-03-26T02:30:20.427Z,72.9862
2024-03-26T02:31:23.138Z,73.1717
2024-03-26T02:32:25.962Z,73.5078
2024-03-26T02:33:28.655Z,73.1039
2024-03-26T02:34:31.405Z,72.7466
2024-03-26T02:35:34.131Z,72.3960
2024-03-26T02:36:36.854Z,71.8080
2024-03-26T02:37:39.581Z,72.5096
2024-03-26T02:38:42.358Z,72.8523
2024-03-26T02:39:45.160Z,71.9353
2024-03-26T02:40:47.939Z,71.5945
2024-03-26T02:41:50.717Z,71.4411
2024-03-26T02:42:53.448Z,71.8099
2024-03-26T02:43:56.228Z,72.0557
2024-03-26T02:44:58.963Z,72.3824
2024-03-26T02:46:01.852Z,72.1497
2024-03-26T02:47:04.586Z,71.8268
2024-03-26T02:48:07.324Z,72.5318
2024-03-26T02:49:10.011Z,72.5795
2024-03-26T02:50:12.742Z,72.9681
2024-03-26T02:51:15.458Z,72.7877
2024-03-26T02:52:18.173Z,72.2725
2024-03-26T02:53:20.958Z,72.2453
2024-03-26T02:54:23.675Z,72.6971
2024-03-26T02:55:26.569Z,72.6716
2024-03-26T02:56:29.372Z,71.3146
2024-03-26T02:57:32.113Z,71.6525
2024-03-26T02:58:34.850Z,72.7326
2024-03-26T02:59:37.668Z,73.5231
2024-03-26T03:00:40.556Z,72.6499
2024-03-26T03:01:43.297Z,73.2399
2024-03-26T03:02:47.255Z,73.0933
2024-03-26T03:03:47.137Z,73.1221
2024-03-26T03:04:49.977Z,73.1362
2024-03-26T03:05:52.719Z,73.0764
2024-03-26T03:06:55.425Z,71.9299
2024-03-26T03:07:58.154Z,71.6311
2024-03-26T03:09:00.937Z,71.5020
2024-03-26T03:10:03.751Z,71.0704
2024-03-26T03:11:06.482Z,71.2016
2024-03-26T03:12:09.217Z,71.7400
2024-03-26T03:13:11.996Z,71.5470
2024-03-26T03:14:14.777Z,71.6693
2024-03-26T03:15:17.515Z,72.1415
2024-03-26T03:16:20.244Z,71.5434
2024-03-26T03:17:23.041Z,71.4964
2024-03-26T03:18:25.854Z,71.6643
2024-03-26T03:19:28.578Z,71.5256
2024-03-26T03:20:31.321Z,71.9515
2024-03-26T03:21:34.068Z,72.3178
2024-03-26T03:22:36.840Z,72.6326
2024-03-26T03:23:39.773Z,71.6815
2024-03-26T03:24:42.497Z,71.7451
2024-03-26T03:25:45.262Z,72.3459
2024-03-26T03:26:48.011Z,71.9148
2024-03-26T03:27:50.724Z,72.2259
2024-03-26T03:28:53.437Z,73.0816
2024-03-26T03:29:56.177Z,73.1286
2024-03-26T03:30:58.968Z,73.0848
2024-03-26T03:32:01.696Z,73.4260
2024-03-26T03:33:04.580Z,73.8616
2024-03-26T03:34:07.285Z,73.6826
2024-03-26T03:35:10.040Z,73.5014
2024-03-26T03:36:12.722Z,73.4641
2024-03-26T03:37:15.464Z,73.3599
2024-03-26T03:38:18.165Z,73.1699
2024-03-26T03:39:20.899Z,73.0521
2024-03-26T03:40:23.603Z,72.5886
2024-03-26T03:41:26.340Z,72.0890
2024-03-26T03:42:29.045Z,72.0063
2024-03-26T03:43:31.778Z,72.4147
2024-03-26T03:44:34.495Z,72.3121
2024-03-26T03:45:37.479Z,72.3574
2024-03-26T03:46:40.245Z,72.8864
2024-03-26T03:47:42.988Z,73.8637
2024-03-26T03:48:45.680Z,72.8709
2024-03-26T03:49:48.393Z,72.3860
2024-03-26T03:50:51.242Z,71.8030
2024-03-26T03:51:53.962Z,72.2623
2024-03-26T03:52:56.692Z,72.2499
2024-03-26T03:53:59.420Z,71.7800
2024-03-26T03:55:02.338Z,71.3572
2024-03-26T03:56:05.057Z,71.5791
2024-03-26T03:57:07.785Z,72.4921
2024-03-26T03:58:10.831Z,73.2425
2024-03-26T03:59:13.531Z,73.5596
2024-03-26T04:00:16.272Z,73.6363
2024-03-26T04:01:18.968Z,74.1332
2024-03-26T04:02:21.693Z,73.2173
2024-03-26T04:03:24.460Z,73.1768
2024-03-26T04:04:27.228Z,72.4949
2024-03-26T04:05:29.955Z,73.0039
2024-03-26T04:06:32.731Z,72.2574
2024-03-26T04:07:35.620Z,73.1403
2024-03-26T04:08:38.336Z,72.1223
2024-03-26T04:09:41.048Z,72.5327
2024-03-26T04:10:43.767Z,72.6171
2024-03-26T04:11:46.485Z,73.2420
2024-03-26T04:12:49.299Z,74.1375
2024-03-26T04:13:52.014Z,73.7123
2024-03-26T04:14:54.749Z,74.3649
2024-03-26T04:15:57.696Z,73.1033
2024-03-26T04:17:00.426Z,72.9989
2024-03-26T04:18:03.207Z,72.6074
2024-03-26T04:19:05.977Z,72.6902
2024-03-26T04:20:08.717Z,72.1982
2024-03-26T04:21:11.402Z,72.3551
2024-03-26T04:22:14.140Z,72.8729
2024-03-26T04:23:16.912Z,72.8811
2024-03-26T04:24:19.776Z,73.2828
2024-03-26T04:25:22.593Z,73.6304
2024-03-26T04:26:25.322Z,73.6984
2024-03-26T04:27:28.060Z,74.0297
2024-03-26T04:28:30.808Z,74.6284
2024-03-26T04:29:33.548Z,75.2323
2024-03-26T04:30:36.395Z,75.0546
2024-03-26T04:31:39.142Z,74.9243
2024-03-26T04:32:41.860Z,74.1361
2024-03-26T04:33:44.591Z,74.0836
2024-03-26T04:34:47.271Z,73.9963
2024-03-26T04:35:50.038Z,74.0079
2024-03-26T04:36:52.723Z,73.8049
2024-03-26T04:37:55.457Z,74.2180
2024-03-26T04:38:58.484Z,75.0386
2024-03-26T04:40:01.253Z,75.0340
2024-03-26T04:41:04.007Z,74.9278
2024-03-26T04:42:06.748Z,74.9249
2024-03-26T04:43:09.455Z,74.9053
2024-03-26T04:44:12.207Z,74.9239
2024-03-26T04:45:14.944Z,75.2830
2024-03-26T04:46:17.667Z,75.4810
2024-03-26T04:47:20.605Z,75.4940
2024-03-26T04:48:23.379Z,74.9800
2024-03-26T04:49:26.086Z,74.8203
2024-03-26T04:50:28.887Z,75.3657
2024-03-26T04:51:31.774Z,76.3400
2024-03-26T04:52:34.520Z,76.2147
2024-03-26T04:53:37.342Z,76.4108
2024-03-26T04:54:40.251Z,76.1596
2024-03-26T04:55:42.964Z,76.7068
2024-03-26T04:56:45.684Z,76.7055
2024-03-26T04:57:48.412Z,76.9683
2024-03-26T04:58:51.151Z,77.5408
2024-03-26T04:59:53.860Z,77.9483
2024-03-26T05:00:56.577Z,77.5484
2024-03-26T05:01:59.376Z,75.9283
2024-03-26T05:03:02.135Z,75.4553
2024-03-26T05:04:04.876Z,75.9071
2024-03-26T05:05:07.618Z,76.4806
2024-03-26T05:06:10.430Z,76.8123
2024-03-26T05:07:13.154Z,76.8332
2024-03-26T05:08:15.946Z,76.8002
2024-03-26T05:09:18.649Z,76.7691
2024-03-26T05:10:21.397Z,77.2785
2024-03-26T05:11:24.154Z,77.6334
2024-03-26T05:12:27.220Z,77.2578
2024-03-26T05:13:29.925Z,77.0633
2024-03-26T05:14:32.890Z,76.7708
2024-03-26T05:15:35.612Z,76.9067
2024-03-26T05:16:38.379Z,75.9653
2024-03-26T05:17:41.118Z,76.2659
2024-03-26T05:18:43.852Z,76.8577
2024-03-26T05:19:46.584Z,76.8120
2024-03-26T05:20:49.348Z,75.9750
2024-03-26T05:21:52.196Z,75.9585
2024-03-26T05:22:55.009Z,76.0555
2024-03-26T05:23:57.755Z,76.2029
2024-03-26T05:25:00.503Z,76.4222
2024-03-26T05:26:03.456Z,76.1402
2024-03-26T05:27:06.239Z,75.9427
2024-03-26T05:28:08.967Z,76.5838
2024-03-26T05:29:11.776Z,77.3192
2024-03-26T05:30:14.478Z,76.5501
2024-03-26T05:31:17.159Z,75.5073
2024-03-26T05:32:19.845Z,75.6130
2024-03-26T05:33:22.556Z,75.8072
2024-03-26T05:34:25.344Z,75.7961
2024-03-26T05:35:28.271Z,76.0801
2024-03-26T05:36:30.971Z,76.5256
2024-03-26T05:37:33.669Z,77.1688
2024-03-26T05:38:36.442Z,76.3687
2024-03-26T05:39:39.085Z,75.9280
2024-03-26T05:40:41.860Z,75.9514
2024-03-26T05:41:44.536Z,76.1702
2024-03-26T05:42:47.291Z,76.4895
2024-03-26T05:43:50.028Z,77.3538
2024-03-26T05:44:52.793Z,77.2067
2024-03-26T05:45:55.436Z,77.1361
2024-03-26T05:46:58.177Z,77.6582
2024-03-26T05:48:00.900Z,77.4135
2024-03-26T05:49:03.622Z,76.7250
2024-03-26T05:50:06.303Z,76.3790
2024-03-26T05:51:09.037Z,75.9419
2024-03-26T05:52:11.778Z,76.1506
2024-03-26T05:53:14.500Z,76.5483
2024-03-26T05:54:17.186Z,76.1067
2024-03-26T05:55:19.937Z,76.0544
2024-03-26T05:56:22.993Z,75.0835
2024-03-26T05:57:25.694Z,75.4268
2024-03-26T05:58:28.422Z,74.8670
2024-03-26T05:59:31.124Z,74.8161
2024-03-26T06:00:33.891Z,75.9054
2024-03-26T06:01:36.587Z,76.1399
2024-03-26T06:02:39.359Z,75.5044
2024-03-26T06:03:42.054Z,75.6664
2024-03-26T06:04:44.739Z,75.3358
2024-03-26T06:05:47.570Z,75.4105
2024-03-26T06:06:50.254Z,75.7595
2024-03-26T06:07:52.916Z,75.4911
2024-03-26T06:08:55.690Z,75.5690
2024-03-26T06:09:58.347Z,75.4849
2024-03-26T06:11:01.058Z,75.4289
2024-03-26T06:12:03.741Z,75.4672
2024-03-26T06:13:07.785Z,75.6639
2024-03-26T06:14:07.084Z,75.0427
2024-03-26T06:15:09.786Z,75.5194
2024-03-26T06:16:12.474Z,75.9471
2024-03-26T06:17:15.146Z,75.3980
2024-03-26T06:18:17.809Z,75.0910
2024-03-26T06:19:20.585Z,74.2696
2024-03-26T06:20:23.250Z,73.7334
2024-03-26T06:21:25.997Z,73.8641
2024-03-26T06:22:28.762Z,73.6163
2024-03-26T06:23:31.528Z,73.4389
2024-03-26T06:24:34.173Z,72.9606
2024-03-26T06:25:36.869Z,73.1089
2024-03-26T06:26:39.613Z,72.9866
2024-03-26T06:27:42.288Z,73.4075
2024-03-26T06:28:45.056Z,73.2921
2024-03-26T06:29:47.782Z,72.6096
2024-03-26T06:30:50.491Z,72.6996
2024-03-26T06:31:53.234Z,73.2129
2024-03-26T06:32:55.987Z,72.5964
2024-03-26T06:33:58.678Z,72.7310
2024-03-26T06:35:01.373Z,72.8279
2024-03-26T06:36:04.100Z,72.6871
2024-03-26T06:37:06.805Z,72.2998
2024-03-26T06:38:09.880Z,71.5482
2024-03-26T06:39:12.625Z,72.8123
2024-03-26T06:40:15.319Z,73.2657
2024-03-26T06:41:17.996Z,71.9642
2024-03-26T06:42:20.746Z,71.8633
2024-03-26T06:43:23.459Z,72.2453
2024-03-26T06:44:26.231Z,72.1485
2024-03-26T06:45:29.223Z,71.9805
2024-03-26T06:46:31.918Z,71.2662
2024-03-26T06:47:34.650Z,71.6611
2024-03-26T06:48:37.387Z,71.4821
2024-03-26T06:49:40.147Z,71.5021
2024-03-26T06:50:42.836Z,70.9617
2024-03-26T06:51:46.135Z,70.9971
2024-03-26T06:52:48.926Z,70.4646
2024-03-26T06:53:51.608Z,69.9401
2024-03-26T06:54:54.352Z,70.1372
2024-03-26T06:55:57.076Z,69.8775
2024-03-26T06:56:59.780Z,70.1084
2024-03-26T06:58:02.558Z,69.5537
2024-03-26T06:59:05.212Z,69.6084
2024-03-26T07:00:07.922Z,70.5985
2024-03-26T07:01:10.591Z,69.1748
2024-03-26T07:02:13.390Z,68.9699
2024-03-26T07:03:16.142Z,69.1275
2024-03-26T07:04:18.817Z,68.9634
2024-03-26T07:05:21.536Z,69.1719
2024-03-26T07:06:24.256Z,69.2152
2024-03-26T07:07:26.993Z,69.1711
2024-03-26T07:08:29.687Z,69.2690
2024-03-26T07:09:32.362Z,69.1278
2024-03-26T07:10:35.134Z,69.1437
2024-03-26T07:11:37.868Z,69.1613
2024-03-26T07:12:40.557Z,68.9027
2024-03-26T07:13:43.232Z,69.4230
2024-03-26T07:14:46.036Z,69.6515
2024-03-26T07:15:48.820Z,69.6479
2024-03-26T07:16:51.478Z,69.6745
2024-03-26T07:17:54.209Z,69.6648
2024-03-26T07:18:56.873Z,70.2787
2024-03-26T07:19:59.631Z,69.7813
2024-03-26T07:21:02.340Z,69.7358
2024-03-26T07:22:05.115Z,69.7924
2024-03-26T07:23:07.754Z,70.4671
2024-03-26T07:24:10.503Z,70.7636
2024-03-26T07:25:13.241Z,70.8507
2024-03-26T07:26:15.960Z,70.5315
2024-03-26T07:27:18.663Z,70.6406
2024-03-26T07:28:21.374Z,71.0559
2024-03-26T07:29:24.099Z,70.6716
2024-03-26T07:30:26.844Z,70.4195
2024-03-26T07:31:29.511Z,70.2882
2024-03-26T07:32:32.223Z,70.2504
2024-03-26T07:33:34.985Z,70.1590
2024-03-26T07:34:37.723Z,70.0138
2024-03-26T07:35:40.443Z,69.5961
2024-03-26T07:36:43.162Z,69.0674
2024-03-26T07:37:45.859Z,68.9274
2024-03-26T07:38:48.591Z,68.6895
2024-03-26T07:39:51.277Z,69.2339
2024-03-26T07:40:53.998Z,68.5926
2024-03-26T07:41:56.743Z,68.6212
2024-03-26T07:43:01.417Z,67.7025
2024-03-26T07:43:59.419Z,68.0112
2024-03-26T07:45:02.536Z,67.9651
2024-03-26T07:46:05.208Z,67.2462
2024-03-26T07:47:08.098Z,65.9494
2024-03-26T07:48:10.857Z,66.0912
2024-03-26T07:49:13.561Z,66.2437
2024-03-26T07:50:16.302Z,66.0846
2024-03-26T07:51:19.646Z,66.1382
2024-03-26T07:52:19.545Z,65.5690
2024-03-26T07:53:22.333Z,65.4478
2024-03-26T07:54:24.947Z,66.2545
2024-03-26T07:55:27.688Z,65.4374
2024-03-26T07:56:30.389Z,65.1429
2024-03-26T07:57:33.115Z,64.4982
2024-03-26T07:58:35.786Z,64.6463
2024-03-26T07:59:38.533Z,64.3370
2024-03-26T08:00:41.323Z,63.6417
2024-03-26T08:01:44.263Z,63.4935
2024-03-26T08:02:46.948Z,64.0373
2024-03-26T08:03:49.712Z,64.2693
2024-03-26T08:04:52.414Z,64.1456
2024-03-26T08:05:55.220Z,63.7867
2024-03-26T08:06:57.941Z,63.0118
2024-03-26T08:08:00.878Z,62.3173
2024-03-26T08:09:03.612Z,62.9013
2024-03-26T08:10:06.399Z,63.0380
2024-03-26T08:11:09.381Z,62.9415
2024-03-26T08:12:12.050Z,63.4582
2024-03-26T08:13:14.823Z,63.6333
2024-03-26T08:14:17.581Z,63.1313
2024-03-26T08:15:20.303Z,62.7173
2024-03-26T08:16:23.032Z,62.0083
2024-03-26T08:17:25.735Z,62.2943
2024-03-26T08:18:28.493Z,61.9954
2024-03-26T08:19:31.630Z,61.2827
2024-03-26T08:20:31.383Z,62.4369
2024-03-26T08:21:34.079Z,61.9811
2024-03-26T08:22:36.761Z,61.0611
2024-03-26T08:23:39.480Z,60.1780
2024-03-26T08:24:42.240Z,60.6500
2024-03-26T08:25:44.940Z,59.5960
2024-03-26T08:26:47.636Z,60.1834
2024-03-26T08:27:50.341Z,59.8933
2024-03-26T08:28:53.069Z,59.7142
2024-03-26T08:29:55.777Z,59.3833
2024-03-26T08:30:58.519Z,59.7140
2024-03-26T08:32:01.218Z,60.2519
2024-03-26T08:33:04.408Z,59.4279
2024-03-26T08:34:07.142Z,58.2133
2024-03-26T08:35:09.859Z,59.4641
2024-03-26T08:36:13.017Z,59.9088
2024-03-26T08:37:12.670Z,58.4005
2024-03-26T08:38:15.355Z,58.2397
2024-03-26T08:39:18.055Z,57.9877
2024-03-26T08:40:20.941Z,56.9952
2024-03-26T08:41:23.793Z,57.0222
2024-03-26T08:42:26.519Z,57.4119
2024-03-26T08:43:29.285Z,57.7085
2024-03-26T08:44:32.351Z,59.0188
2024-03-26T08:45:35.019Z,59.0210
2024-03-26T08:46:37.706Z,58.4344
2024-03-26T08:47:40.428Z,58.6787
2024-03-26T08:48:43.152Z,58.4899
2024-03-26T08:49:45.860Z,58.3066
2024-03-26T08:50:48.606Z,57.9950
2024-03-26T08:51:52.202Z,58.6024
2024-03-26T08:52:51.571Z,59.3591
2024-03-26T08:53:54.279Z,59.6268
2024-03-26T08:54:56.979Z,59.6779
2024-03-26T08:56:08.565Z,59.2916
2024-03-26T08:57:01.407Z,58.4607
2024-03-26T08:58:04.058Z,58.2704
2024-03-26T08:59:06.806Z,58.2519
2024-03-26T09:00:09.557Z,58.4237
2024-03-26T09:01:12.279Z,59.2535
2024-03-26T09:02:14.992Z,58.0742
2024-03-26T09:03:17.772Z,57.6516
2024-03-26T09:04:21.934Z,57.9860
2024-03-26T09:05:22.608Z,58.4624
2024-03-26T09:06:25.299Z,58.3191
2024-03-26T09:07:28.206Z,57.6042
2024-03-26T09:08:31.000Z,58.3237
2024-03-26T09:09:33.696Z,57.5135
2024-03-26T09:10:36.431Z,57.7184
2024-03-26T09:11:39.146Z,57.1038
2024-03-26T09:12:41.865Z,57.0214
2024-03-26T09:13:45.019Z,56.2738
2024-03-26T09:14:47.692Z,56.6718
2024-03-26T09:15:50.482Z,57.0423
2024-03-26T09:16:53.192Z,56.8362
2024-03-26T09:17:55.922Z,56.0054
2024-03-26T09:19:01.701Z,56.6277
2024-03-26T09:20:01.641Z,55.2147
2024-03-26T09:21:04.366Z,56.5123
2024-03-26T09:22:07.316Z,55.7259
2024-03-26T09:23:10.026Z,55.9186
2024-03-26T09:24:12.719Z,56.3076
2024-03-26T09:25:15.460Z,55.4554
2024-03-26T09:26:18.195Z,56.1847
2024-03-26T09:27:20.922Z,55.3301
2024-03-26T09:28:23.692Z,54.3649
2024-03-26T09:29:26.365Z,53.9854
2024-03-26T09:30:29.377Z,53.1707
2024-03-26T09:31:32.141Z,53.0855
2024-03-26T09:32:34.830Z,53.5389
2024-03-26T09:33:37.597Z,54.0101
2024-03-26T09:34:40.332Z,55.8600
2024-03-26T09:35:43.308Z,54.8899
2024-03-26T09:36:46.158Z,53.4735
2024-03-26T09:37:49.941Z,53.7501
2024-03-26T09:38:51.048Z,53.5882
2024-03-26T09:39:51.748Z,54.2642
2024-03-26T09:40:54.555Z,53.5059
2024-03-26T09:41:57.439Z,54.3647
2024-03-26T09:43:00.167Z,53.0910
2024-03-26T09:44:03.050Z,54.0992
2024-03-26T09:45:06.857Z,55.4933
2024-03-26T09:46:06.659Z,56.1975
2024-03-26T09:47:09.377Z,56.1444
2024-03-26T09:48:12.096Z,57.0392
2024-03-26T09:49:14.830Z,57.6285
2024-03-26T09:50:17.628Z,55.5163
2024-03-26T09:51:20.571Z,55.4932
2024-03-26T09:52:23.331Z,55.1459
2024-03-26T09:53:26.068Z,54.0276
2024-03-26T09:54:28.996Z,54.2685
2024-03-26T09:55:31.805Z,54.3706
2024-03-26T09:56:34.528Z,54.4132
2024-03-26T09:57:37.274Z,54.8233
2024-03-26T09:58:40.289Z,54.2953
2024-03-26T09:59:43.093Z,56.1346
2024-03-26T10:00:45.834Z,53.0288
2024-03-26T10:01:48.548Z,54.1068
2024-03-26T10:02:51.454Z,53.3577
2024-03-26T10:03:54.509Z,54.2358
2024-03-26T10:04:57.244Z,53.6249
2024-03-26T10:06:00.097Z,54.1807
2024-03-26T10:07:02.982Z,56.2803
2024-03-26T10:08:05.715Z,56.1664
2024-03-26T10:09:08.735Z,55.8026
2024-03-26T10:10:11.488Z,57.0150
2024-03-26T10:11:14.273Z,56.3571
2024-03-26T10:12:17.243Z,57.9517
2024-03-26T10:13:20.003Z,56.1706
2024-03-26T10:14:22.771Z,55.2739
2024-03-26T10:15:25.700Z,54.3281
2024-03-26T10:16:28.426Z,55.0671
2024-03-26T10:17:33.250Z,57.1788
2024-03-26T10:18:32.854Z,54.9765
2024-03-26T10:19:35.608Z,57.2912
2024-03-26T10:20:38.412Z,56.6926
2024-03-26T10:21:41.373Z,54.5530
2024-03-26T10:22:44.108Z,55.5966
2024-03-26T10:23:46.901Z,55.5191
2024-03-26T10:24:49.858Z,54.8795
2024-03-26T10:25:52.572Z,55.6680
2024-03-26T10:26:55.381Z,54.4715
2024-03-26T10:27:58.097Z,54.8180
2024-03-26T10:29:01.082Z,54.8984
2024-03-26T10:30:03.886Z,55.7106
2024-03-26T10:31:06.653Z,56.4649
2024-03-26T10:32:09.629Z,57.3337
2024-03-26T10:33:12.560Z,57.6470
2024-03-26T10:34:15.245Z,57.8518
2024-03-26T10:35:18.021Z,56.9216
2024-03-26T10:36:20.815Z,56.8573
2024-03-26T10:37:23.548Z,57.0631
2024-03-26T10:38:26.487Z,57.7599
2024-03-26T10:39:29.285Z,58.0488
2024-03-26T10:40:32.021Z,58.7457
2024-03-26T10:41:34.935Z,56.2563
2024-03-26T10:42:37.968Z,57.9738
2024-03-26T10:43:40.695Z,56.3110
2024-03-26T10:44:43.704Z,56.5222
2024-03-26T10:45:59.960Z,57.2697
2024-03-26T10:46:49.399Z,55.3197
2024-03-26T10:47:48.938Z,56.8341
2024-03-26T10:48:57.495Z,57.0509
2024-03-26T10:49:53.414Z,57.9849
2024-03-26T10:50:56.625Z,57.5146
2024-03-26T10:51:59.377Z,56.5280
2024-03-26T10:53:02.296Z,58.0460
2024-03-26T10:54:05.103Z,58.1125
2024-03-26T10:55:07.830Z,58.4018
2024-03-26T10:56:10.714Z,57.1215
2024-03-26T10:57:13.478Z,56.1129
2024-03-26T10:58:16.201Z,56.4303
2024-03-26T10:59:18.979Z,56.3965
2024-03-26T11:00:21.946Z,56.6892
2024-03-26T11:01:24.666Z,56.5841
2024-03-26T11:02:27.396Z,57.0696
2024-03-26T11:03:30.106Z,56.3911
2024-03-26T11:04:32.831Z,56.1727
2024-03-26T11:05:35.861Z,53.8201
2024-03-26T11:06:38.606Z,51.3720
2024-03-26T11:07:41.577Z,51.1363
2024-03-26T11:08:44.360Z,50.8487
2024-03-26T11:09:47.115Z,49.6562
2024-03-26T11:10:52.500Z,49.6517
2024-03-26T11:11:52.099Z,50.2824
2024-03-26T11:12:54.890Z,49.9221
2024-03-26T11:13:57.639Z,47.5735
2024-03-26T11:15:00.454Z,49.6195
2024-03-26T11:16:03.799Z,48.4137
2024-03-26T11:17:04.044Z,47.7107
2024-03-26T11:18:06.936Z,48.0458
2024-03-26T11:19:09.727Z,46.8244
2024-03-26T11:20:12.668Z,44.7473
2024-03-26T11:21:15.396Z,45.6224
2024-03-26T11:22:18.459Z,46.0847
2024-03-26T11:23:21.258Z,45.3915
2024-03-26T11:24:23.998Z,45.2783
2024-03-26T11:25:26.788Z,45.4062
2024-03-26T11:26:29.657Z,44.6131
2024-03-26T11:27:32.676Z,43.3861
2024-03-26T11:28:35.391Z,44.2915
2024-03-26T11:29:38.302Z,45.3119
2024-03-26T11:30:41.157Z,46.9645
2024-03-26T11:31:43.956Z,44.9266
2024-03-26T11:32:46.707Z,44.8911
2024-03-26T11:33:49.631Z,46.1691
2024-03-26T11:34:52.459Z,48.1531
2024-03-26T11:35:55.202Z,47.4701
2024-03-26T11:36:58.108Z,45.4527
2024-03-26T11:38:03.485Z,43.8237
2024-03-26T11:39:03.087Z,42.1517
2024-03-26T11:40:06.024Z,42.7179
2024-03-26T11:41:08.984Z,41.5285
2024-03-26T11:42:11.867Z,40.1929
2024-03-26T11:43:14.762Z,40.1760
2024-03-26T11:44:17.554Z,39.8460
2024-03-26T11:45:20.518Z,41.6093
2024-03-26T11:46:23.267Z,44.0600
2024-03-26T11:47:26.101Z,45.1731
2024-03-26T11:48:28.844Z,45.1960
2024-03-26T11:49:31.762Z,45.9986
2024-03-26T11:50:34.536Z,46.4431
2024-03-26T11:51:37.869Z,44.9751
2024-03-26T11:52:38.301Z,44.0503
2024-03-26T11:53:41.310Z,45.2572
2024-03-26T11:54:44.118Z,46.8416
2024-03-26T11:55:47.085Z,47.4060
2024-03-26T11:56:49.848Z,45.2622
2024-03-26T11:57:52.625Z,44.7019
2024-03-26T11:58:55.578Z,44.3355
2024-03-26T11:59:58.326Z,44.2456
2024-03-26T12:01:01.099Z,43.7174
2024-03-26T12:02:03.839Z,44.7013
2024-03-26T12:03:06.796Z,45.3597
2024-03-26T12:04:09.524Z,45.5360
2024-03-26T12:05:12.527Z,45.5038
2024-03-26T12:06:15.245Z,46.0616
2024-03-26T12:07:17.996Z,45.4546
2024-03-26T12:08:20.749Z,43.4974
2024-03-26T12:09:23.545Z,43.9039
2024-03-26T12:10:26.317Z,44.4214
2024-03-26T12:11:29.191Z,43.4939
2024-03-26T12:12:31.879Z,45.6767
2024-03-26T12:13:34.607Z,44.6771
2024-03-26T12:14:37.345Z,43.0323
2024-03-26T12:15:40.374Z,42.2805
2024-03-26T12:16:43.331Z,39.6568
2024-03-26T12:17:46.230Z,38.5774
2024-03-26T12:18:48.969Z,39.1293
2024-03-26T12:19:51.882Z,41.5492
2024-03-26T12:20:54.946Z,40.3443
2024-03-26T12:21:57.693Z,39.0336
2024-03-26T12:23:00.492Z,39.7404
2024-03-26T12:24:03.272Z,40.0081
2024-03-26T12:25:06.166Z,38.4843
2024-03-26T12:26:08.910Z,40.6115
2024-03-26T12:27:11.844Z,44.1123
2024-03-26T12:28:14.649Z,42.9423
2024-03-26T12:29:17.399Z,40.3884
2024-03-26T12:30:20.404Z,39.0676
2024-03-26T12:31:23.325Z,37.8568
2024-03-26T12:32:26.124Z,38.9300
2024-03-26T12:33:28.949Z,37.9914
2024-03-26T12:34:31.871Z,36.6261
2024-03-26T12:35:34.624Z,37.3639
2024-03-26T12:36:37.460Z,37.1831
2024-03-26T12:37:40.390Z,37.4787
2024-03-26T12:38:43.128Z,37.9625